Time;durP1;ratioP1;P1;durP2;ratioP2;P2;SDS_P1;SDS_P2;PMS_P1;PMS_P2;Temp;Humidity;BMP_temperature;BMP_pressure;BME280_temperature;BME280_humidity;BME280_pressure;Samples;Min_cycle;Max_cycle;Signal;HPM_P1;HPM_P2
2021/01/02 00:01:35;;;;;;;81.22;35.72;;;;;;;2.38;92.85;100627.97;5071864;28;20366;-65
2021/01/02 00:04:46;;;;;;;78.65;31.45;;;;;;;2.43;92.99;100623.19;5072764;28;20422;-65
2021/01/02 00:07:45;;;;;;;83.25;36.75;;;;;;;2.44;93.02;100628.34;5071650;28;20097;-65
2021/01/02 00:10:14;;;;;;;109.00;40.90;;;;;;;2.47;93.00;100629.94;5071901;28;20028;-65
2021/01/02 00:13:01;;;;;;;106.55;40.42;;;;;;;2.48;92.92;100635.09;5072722;28;20043;-71
2021/01/02 00:15:50;;;;;;;100.13;40.42;;;;;;;2.47;92.94;100638.66;5072617;28;20020;-71
2021/01/02 00:18:19;;;;;;;117.03;47.75;;;;;;;2.53;92.92;100640.84;5064617;28;20079;-65
2021/01/02 00:21:12;;;;;;;107.63;42.80;;;;;;;2.57;92.84;100643.25;5072287;28;20036;-65
2021/01/02 00:24:00;;;;;;;102.10;41.20;;;;;;;2.57;93.06;100643.25;5071590;28;20048;-65
2021/01/02 00:26:54;;;;;;;97.18;42.97;;;;;;;2.59;93.05;100636.91;5071194;28;20028;-65
2021/01/02 00:29:22;;;;;;;125.63;44.55;;;;;;;2.60;92.87;100648.28;5071356;28;20123;-64
2021/01/02 00:32:08;;;;;;;106.05;42.40;;;;;;;2.59;92.79;100649.25;5070636;28;20119;-65
2021/01/02 00:34:51;;;;;;;108.72;44.05;;;;;;;2.59;92.95;100651.91;5071305;28;20040;-65
2021/01/02 00:37:20;;;;;;;105.47;41.50;;;;;;;2.59;93.05;100646.63;5071231;28;20028;-65
2021/01/02 00:40:00;;;;;;;122.05;45.13;;;;;;;2.62;92.83;100649.03;5071120;28;20040;-65
2021/01/02 00:42:26;;;;;;;121.65;45.40;;;;;;;2.59;92.96;100647.47;5071257;28;20454;-65
2021/01/02 00:44:52;;;;;;;100.70;41.03;;;;;;;2.61;92.94;100645.56;5072112;28;20074;-65
2021/01/02 00:47:18;;;;;;;95.50;40.40;;;;;;;2.63;92.89;100643.66;5054286;28;20336;-65
2021/01/02 00:49:44;;;;;;;119.65;41.83;;;;;;;2.61;93.03;100650.00;5070921;28;20050;-65
2021/01/02 00:52:30;;;;;;;;;;;;;;;2.61;92.97;100645.56;5071365;28;20062;-65
2021/01/02 00:55:12;;;;;;;116.05;43.95;;;;;;;2.60;92.81;100653.56;5070826;28;19912;-65
2021/01/02 00:57:54;;;;;;;101.80;39.35;;;;;;;2.55;92.89;100646.00;5070733;28;20034;-65
2021/01/02 01:00:21;;;;;;;123.00;43.63;;;;;;;2.52;93.08;100646.22;5070535;28;20119;-65
2021/01/02 01:03:04;;;;;;;97.97;38.78;;;;;;;2.59;92.88;100655.38;5071075;28;20032;-64
2021/01/02 01:05:45;;;;;;;107.90;42.47;;;;;;;2.62;92.95;100656.94;5071510;28;20048;-65
2021/01/02 01:08:15;;;;;;;109.15;40.38;;;;;;;2.62;93.05;100660.44;5071708;28;20058;-65
2021/01/02 01:10:40;;;;;;;111.60;42.70;;;;;;;2.61;93.00;100661.38;5070625;28;20154;-65
2021/01/02 01:13:16;;;;;;;109.67;43.30;;;;;;;2.61;92.80;100663.16;5070682;28;20070;-65
2021/01/02 01:15:42;;;;;;;128.18;45.92;;;;;;;2.62;93.12;100667.47;5071319;28;20064;-65
2021/01/02 01:18:16;;;;;;;139.13;47.53;;;;;;;2.61;93.05;100671.06;5070641;28;20071;-65
2021/01/02 01:20:47;;;;;;;114.32;43.63;;;;;;;2.59;93.23;100657.16;5070372;28;20056;-65
2021/01/02 01:23:36;;;;;;;110.55;44.38;;;;;;;2.65;92.91;100665.47;5071513;28;20059;-65
2021/01/02 01:26:32;;;;;;;131.77;47.65;;;;;;;2.61;92.82;100673.72;5068078;28;20076;-65
2021/01/02 01:28:59;;;;;;;114.80;43.67;;;;;;;2.61;92.98;100671.91;5070417;28;20044;-65
2021/01/02 01:31:28;;;;;;;;;;;;;;;2.53;92.92;100671.66;5070874;28;20265;-65
2021/01/02 01:33:58;;;;;;;100.85;40.10;;;;;;;2.53;92.67;100677.75;5070235;28;20616;-65
2021/01/02 01:36:32;;;;;;;91.80;39.90;;;;;;;2.48;92.99;100669.34;5053347;28;20036;-65
2021/01/02 01:38:58;;;;;;;99.22;39.15;;;;;;;2.49;93.05;100678.94;5053682;28;20484;-64
2021/01/02 01:41:37;;;;;;;95.87;39.30;;;;;;;2.51;93.00;100676.19;5070153;28;20044;-64
2021/01/02 01:44:08;;;;;;;95.93;39.00;;;;;;;2.49;92.79;100686.00;5071165;28;20089;-65
2021/01/02 01:46:48;;;;;;;86.47;37.55;;;;;;;2.52;93.00;100688.41;5070902;28;20809;-65
2021/01/02 01:49:21;;;;;;;83.10;35.53;;;;;;;2.50;92.76;100680.59;5071248;28;20064;-65
2021/01/02 01:52:02;;;;;;;93.75;42.72;;;;;;;2.51;92.78;100682.28;5071218;28;20442;-65
2021/01/02 01:54:52;;;;;;;111.85;40.03;;;;;;;2.50;92.86;100693.78;5071059;28;20044;-65
2021/01/02 01:57:23;;;;;;;83.75;35.80;;;;;;;2.50;92.88;100691.13;5069785;28;20421;-65
2021/01/02 01:59:57;;;;;;;100.63;39.95;;;;;;;2.57;93.11;100688.06;5070029;28;20125;-65
2021/01/02 02:02:44;;;;;;;89.53;36.80;;;;;;;2.59;92.83;100694.06;5053340;28;20040;-64
2021/01/02 02:05:17;;;;;;;78.93;32.88;;;;;;;2.52;92.92;100694.50;5069771;28;20051;-65
2021/01/02 02:08:05;;;;;;;94.38;35.25;;;;;;;2.45;92.77;100695.91;5070671;28;20047;-65
2021/01/02 02:10:32;;;;;;;88.65;34.58;;;;;;;2.50;92.99;100696.41;5069941;28;20032;-65
2021/01/02 02:13:00;;;;;;;76.63;33.60;;;;;;;2.52;92.90;100697.13;5053331;28;20064;-65
2021/01/02 02:15:28;;;;;;;90.22;36.33;;;;;;;2.52;92.82;100697.13;5070905;28;20036;-65
2021/01/02 02:18:05;;;;;;;66.00;28.75;;;;;;;2.51;92.94;100698.09;5069749;28;20040;-65
2021/01/02 02:20:32;;;;;;;88.63;34.35;;;;;;;2.45;92.79;100693.28;5069909;28;20052;-65
2021/01/02 02:23:06;;;;;;;76.13;33.40;;;;;;;2.46;92.87;100700.25;5070910;28;20051;-65
2021/01/02 02:25:48;;;;;;;80.90;33.58;;;;;;;2.46;92.96;100700.25;5070663;28;20029;-65
2021/01/02 02:28:41;;;;;;;74.47;30.70;;;;;;;2.43;92.85;100700.44;5069780;28;20025;-65
2021/01/02 02:31:07;;;;;;;92.78;36.25;;;;;;;2.37;93.29;100706.19;5070855;28;20132;-65
2021/01/02 02:33:35;;;;;;;75.78;34.00;;;;;;;2.45;93.21;100693.28;5052998;28;20480;-65
2021/01/02 02:36:05;;;;;;;87.35;35.58;;;;;;;2.50;93.03;100693.78;5069542;28;20032;-65
2021/01/02 02:38:37;;;;;;;80.70;34.72;;;;;;;2.57;93.20;100701.25;5069804;28;20139;-65
2021/01/02 02:41:05;;;;;;;102.88;40.53;;;;;;;2.48;93.06;100698.34;5070062;28;20429;-65
2021/01/02 02:43:32;;;;;;;105.82;40.15;;;;;;;2.50;92.96;100696.41;5069645;28;20088;-65
2021/01/02 02:45:58;;;;;;;94.18;36.45;;;;;;;2.57;93.09;100698.59;5070419;28;20115;-65
2021/01/02 02:48:24;;;;;;;88.63;36.45;;;;;;;2.60;92.89;100699.25;5070561;28;20060;-65
2021/01/02 02:50:53;;;;;;;93.97;38.08;;;;;;;2.59;93.13;100696.69;5069522;28;20036;-65
2021/01/02 02:53:18;;;;;;;114.38;41.35;;;;;;;2.60;92.80;100701.00;5070578;28;20036;-65
2021/01/02 02:55:43;;;;;;;98.10;40.03;;;;;;;2.57;93.02;100699.44;5070918;28;20131;-65
2021/01/02 02:58:11;;;;;;;114.55;43.30;;;;;;;2.62;93.13;100699.09;5073258;28;20500;-65
2021/01/02 03:00:38;;;;;;;135.60;45.30;;;;;;;2.61;92.74;100698.28;5074050;28;20032;-65
2021/01/02 03:03:07;;;;;;;105.13;42.58;;;;;;;2.62;93.01;100701.75;5056591;28;20046;-65
2021/01/02 03:05:33;;;;;;;136.90;47.92;;;;;;;2.61;92.93;100702.72;5073795;28;20115;-65
2021/01/02 03:07:59;;;;;;;;;;;;;;;2.62;92.90;100702.59;5073278;28;20040;-65
2021/01/02 03:10:25;;;;;;;;;;;;;;;2.65;92.86;100710.28;5074422;28;19913;-65
2021/01/02 03:12:52;;;;;;;126.47;43.60;;;;;;;2.63;92.97;100706.06;5072947;28;19919;-65
2021/01/02 03:15:19;;;;;;;142.95;48.60;;;;;;;2.57;92.87;100704.72;5073832;28;20362;-65
2021/01/02 03:17:48;;;;;;;109.88;43.30;;;;;;;2.60;93.14;100715.06;5073624;28;20044;-65
2021/01/02 03:20:16;;;;;;;117.68;45.53;;;;;;;2.59;93.06;100716.00;5073661;28;20075;-65
2021/01/02 03:22:42;;;;;;;111.43;44.95;;;;;;;2.49;93.02;100710.56;5072850;28;20393;-65
2021/01/02 03:25:10;;;;;;;95.82;38.30;;;;;;;2.53;93.14;100717.28;5073715;28;20051;-65
2021/01/02 03:27:35;;;;;;;107.93;42.15;;;;;;;2.48;92.88;100703.63;5073436;28;20043;-65
2021/01/02 03:30:01;;;;;;;100.90;40.25;;;;;;;2.47;92.99;100712.44;5073623;28;20029;-64
2021/01/02 03:32:26;;;;;;;68.78;30.27;;;;;;;2.38;92.73;100721.03;5073455;28;20162;-65
2021/01/02 03:34:52;;;;;;;61.63;26.53;;;;;;;2.44;92.60;100720.59;5072508;28;20047;-64
2021/01/02 03:37:17;;;;;;;64.60;26.03;;;;;;;2.37;92.57;100727.25;5073258;28;20046;-64
2021/01/02 03:39:42;;;;;;;61.50;25.83;;;;;;;2.35;92.50;100737.06;5072346;28;20036;-65
2021/01/02 03:42:09;;;;;;;49.00;20.10;;;;;;;2.35;92.43;100737.06;5073408;28;20071;-65
2021/01/02 03:44:34;;;;;;;37.03;16.33;;;;;;;2.33;92.62;100734.53;5072370;28;20036;-65
2021/01/02 03:47:05;;;;;;;41.27;18.40;;;;;;;2.32;92.59;100735.47;5073043;28;20038;-64
2021/01/02 03:49:30;;;;;;;41.75;18.50;;;;;;;2.35;92.50;100734.41;5073262;28;20150;-65
2021/01/02 03:52:00;;;;;;;41.80;17.77;;;;;;;2.36;92.50;100740.53;5072309;28;20047;-65
2021/01/02 03:54:25;;;;;;;38.15;17.98;;;;;;;2.37;92.27;100731.69;5072224;28;20416;-65
2021/01/02 03:56:50;;;;;;;46.50;17.63;;;;;;;2.33;92.26;100736.31;5055092;28;20032;-65
2021/01/02 03:59:15;;;;;;;36.23;15.83;;;;;;;2.29;92.23;100737.47;5072082;28;20047;-65
2021/01/02 04:01:41;;;;;;;36.57;15.17;;;;;;;2.28;92.48;100741.09;5072898;28;20028;-65
2021/01/02 04:04:06;;;;;;;36.50;15.70;;;;;;;2.26;92.48;100735.91;5071895;28;20630;-65
2021/01/02 04:06:31;;;;;;;32.60;14.57;;;;;;;2.32;92.59;100734.66;5070927;28;20044;-64
2021/01/02 04:08:57;;;;;;;42.93;14.90;;;;;;;2.23;92.50;100735.31;5072677;28;20048;-64
2021/01/02 04:11:22;;;;;;;30.60;14.63;;;;;;;2.30;92.46;100736.56;5055191;28;20032;-64
2021/01/02 04:13:47;;;;;;;36.23;14.20;;;;;;;2.33;92.58;100734.53;5071781;28;20040;-64
2021/01/02 04:16:13;;;;;;;30.10;11.80;;;;;;;2.29;92.45;100743.63;5071390;28;20028;-65
2021/01/02 04:18:38;;;;;;;27.13;12.03;;;;;;;2.31;92.50;100738.22;5071759;28;20051;-65
2021/01/02 04:21:04;;;;;;;24.17;10.63;;;;;;;2.33;92.48;100744.22;5071518;28;20048;-65
2021/01/02 04:23:29;;;;;;;25.45;12.23;;;;;;;2.27;92.46;100742.88;5072640;28;20041;-65
2021/01/02 04:25:54;;;;;;;21.97;10.37;;;;;;;2.26;92.63;100745.63;5071369;28;20037;-65
2021/01/02 04:28:20;;;;;;;28.03;11.83;;;;;;;2.24;92.54;100748.34;5072505;28;20070;-65
2021/01/02 04:30:45;;;;;;;33.00;13.03;;;;;;;2.20;92.05;100749.53;5072374;28;20047;-64
2021/01/02 04:33:10;;;;;;;18.73;9.97;;;;;;;2.25;92.44;100749.22;5071473;28;20044;-64
2021/01/02 04:35:36;;;;;;;22.63;10.87;;;;;;;2.27;92.41;100748.16;5071242;28;20036;-65
2021/01/02 04:38:02;;;;;;;28.45;10.43;;;;;;;2.29;92.41;100751.53;5072144;28;20139;-65
2021/01/02 04:40:27;;;;;;;23.85;10.75;;;;;;;2.25;92.27;100749.22;5072133;28;20043;-65
2021/01/02 04:42:53;;;;;;;26.38;11.02;;;;;;;2.29;92.47;100755.94;5072195;28;20024;-65
2021/01/02 04:45:20;;;;;;;23.88;10.73;;;;;;;2.27;92.49;100757.81;5071166;28;20068;-65
2021/01/02 04:47:48;;;;;;;30.00;10.82;;;;;;;2.22;92.23;100755.50;5071823;28;20040;-65
2021/01/02 04:50:13;;;;;;;32.25;12.05;;;;;;;2.20;92.18;100760.06;5072009;28;20056;-65
2021/01/02 04:52:40;;;;;;;28.43;10.97;;;;;;;2.22;92.52;100754.69;5071080;28;20477;-64
2021/01/02 04:55:07;;;;;;;32.05;12.80;;;;;;;2.24;92.30;100763.31;5070956;28;20493;-65
2021/01/02 04:57:38;;;;;;;29.63;11.93;;;;;;;2.23;92.58;100762.47;5070702;28;20048;-65
2021/01/02 05:00:09;;;;;;;25.73;12.05;;;;;;;2.26;92.53;100761.41;5071659;28;20335;-65
2021/01/02 05:02:38;;;;;;;31.35;12.93;;;;;;;2.29;92.64;100763.81;5071776;28;20054;-65
2021/01/02 05:05:06;;;;;;;33.83;15.77;;;;;;;2.30;92.74;100776.91;5071608;28;20044;-65
2021/01/02 05:07:31;;;;;;;36.47;14.25;;;;;;;2.32;92.69;100769.75;5071521;28;20447;-71
2021/01/02 05:09:57;;;;;;;38.40;16.90;;;;;;;2.32;92.65;100777.66;5071697;28;20039;-71
2021/01/02 05:12:28;;;;;;;39.15;15.52;;;;;;;2.30;92.53;100770.81;5071726;28;20036;-71
2021/01/02 05:15:01;;;;;;;41.10;15.75;;;;;;;2.30;92.41;100773.44;5071629;28;20036;-72
2021/01/02 05:17:28;;;;;;;32.33;15.45;;;;;;;2.29;92.54;100777.00;5071312;28;20036;-72
2021/01/02 05:20:01;;;;;;;41.47;17.60;;;;;;;2.08;92.32;100782.84;5071263;28;20131;-71
2021/01/02 05:22:26;;;;;;;37.97;13.80;;;;;;;1.99;92.21;100788.75;5053805;28;20040;-71
2021/01/02 05:25:10;;;;;;;24.47;13.07;;;;;;;1.93;92.48;100789.16;5071443;28;20032;-71
2021/01/02 05:27:36;;;;;;;47.05;15.45;;;;;;;1.88;92.50;100799.19;5071272;28;20048;-71
2021/01/02 05:30:11;;;;;;;27.65;12.18;;;;;;;1.97;92.63;100792.44;5071502;28;20028;-71
2021/01/02 05:32:53;;;;;;;26.77;13.27;;;;;;;2.05;92.66;100796.22;5071560;28;20040;-72
2021/01/02 05:35:20;;;;;;;24.15;10.93;;;;;;;2.05;92.66;100793.56;5053521;28;20385;-71
2021/01/02 05:37:46;;;;;;;22.95;10.98;;;;;;;2.07;92.62;100801.38;5070164;28;20727;-72
2021/01/02 05:40:12;;;;;;;21.83;9.35;;;;;;;2.08;92.78;100801.28;5071274;28;20028;-72
2021/01/02 05:42:39;;;;;;;20.10;8.80;;;;;;;2.13;92.47;100803.59;5070390;28;20575;-72
2021/01/02 05:45:05;;;;;;;20.23;9.40;;;;;;;2.06;92.48;100808.44;5071219;28;20105;-71
2021/01/02 05:47:30;;;;;;;29.42;10.75;;;;;;;1.92;92.36;100808.56;5070922;28;20463;-71
2021/01/02 05:49:58;;;;;;;25.23;10.03;;;;;;;1.81;92.55;100808.44;5070403;28;20044;-72
2021/01/02 05:52:32;;;;;;;29.33;11.60;;;;;;;1.71;92.86;100807.38;5053420;28;20082;-71
2021/01/02 05:54:57;;;;;;;26.73;10.43;;;;;;;1.71;93.26;100807.38;5071196;28;20046;-71
2021/01/02 05:57:29;;;;;;;20.53;10.43;;;;;;;1.83;93.31;100817.09;5070847;28;20040;-72
2021/01/02 05:59:56;;;;;;;28.90;11.73;;;;;;;1.80;93.11;100825.16;5071152;28;20090;-71
2021/01/02 06:02:26;;;;;;;29.80;11.75;;;;;;;1.86;93.37;100824.75;5070123;28;20039;-72
2021/01/02 06:05:06;;;;;;;24.85;11.07;;;;;;;1.94;93.44;100826.88;5071105;28;20059;-72
2021/01/02 06:07:34;;;;;;;26.95;11.45;;;;;;;2.01;93.34;100823.69;5070720;28;20060;-72
2021/01/02 06:09:59;;;;;;;27.77;11.15;;;;;;;2.02;93.13;100816.66;5070179;28;20066;-72
2021/01/02 06:12:31;;;;;;;30.35;12.98;;;;;;;1.98;93.27;100823.09;5071093;28;20029;-72
2021/01/02 06:15:02;;;;;;;29.38;12.18;;;;;;;1.99;93.39;100833.53;5070937;28;20043;-72
2021/01/02 06:17:32;;;;;;;23.75;11.52;;;;;;;2.03;93.40;100831.50;5053033;28;20468;-72
2021/01/02 06:20:13;;;;;;;28.15;12.07;;;;;;;2.01;93.01;100833.41;5070962;28;20366;-72
2021/01/02 06:22:41;;;;;;;25.50;11.95;;;;;;;1.92;93.09;100826.13;5053273;28;20036;-72
2021/01/02 06:25:07;;;;;;;39.30;13.10;;;;;;;1.93;92.89;100831.28;5070875;28;20047;-72
2021/01/02 06:27:37;;;;;;;37.65;12.73;;;;;;;1.88;93.12;100833.41;5069466;28;20430;-71
2021/01/02 06:30:02;;;;;;;25.38;11.82;;;;;;;1.96;93.40;100838.97;5070455;28;20101;-72
2021/01/02 06:32:28;;;;;;;24.35;11.48;;;;;;;1.92;93.15;100842.78;5073785;28;20045;-72
2021/01/02 06:35:06;;;;;;;21.40;12.00;;;;;;;2.02;93.27;100838.56;5074716;28;20028;-72
2021/01/02 06:37:47;;;;;;;32.30;13.68;;;;;;;1.97;93.21;100835.41;5074377;28;20041;-71
2021/01/02 06:40:19;;;;;;;25.02;10.40;;;;;;;2.04;93.25;100841.94;5074426;28;20055;-72
2021/01/02 06:43:01;;;;;;;23.92;11.20;;;;;;;2.10;93.32;100838.88;5073689;28;20043;-72
2021/01/02 06:45:36;;;;;;;25.30;11.77;;;;;;;2.12;93.37;100844.03;5073585;28;20036;-71
2021/01/02 06:48:16;;;;;;;38.33;14.45;;;;;;;2.07;93.07;100844.34;5074217;28;20044;-72
2021/01/02 06:51:11;;;;;;;26.77;12.45;;;;;;;1.98;93.25;100844.16;5074387;28;20455;-71
2021/01/02 06:53:37;;;;;;;20.38;9.18;;;;;;;2.11;93.29;100850.28;5069280;28;20044;-71
2021/01/02 06:56:08;;;;;;;26.92;11.90;;;;;;;2.09;93.25;100857.44;5073982;28;20041;-71
2021/01/02 06:58:46;;;;;;;27.35;12.75;;;;;;;2.03;93.06;100852.56;5074177;28;20032;-71
2021/01/02 07:01:14;;;;;;;23.95;11.45;;;;;;;2.11;93.23;100855.53;5073221;28;20072;-71
2021/01/02 07:03:40;;;;;;;26.73;11.82;;;;;;;2.13;93.14;100852.78;5056286;28;20040;-71
2021/01/02 07:06:17;;;;;;;26.97;12.67;;;;;;;2.13;92.97;100855.41;5073901;28;20110;-71
2021/01/02 07:08:43;;;;;;;26.38;11.80;;;;;;;1.93;93.04;100856.78;5074092;28;20032;-71
2021/01/02 07:11:29;;;;;;;;;;;;;;;1.93;92.93;100862.91;5073458;28;20374;-71
2021/01/02 07:14:14;;;;;;;26.40;12.43;;;;;;;2.01;93.18;100865.84;5056290;28;19912;-71
2021/01/02 07:16:59;;;;;;;30.08;13.48;;;;;;;1.96;93.24;100867.94;5073651;28;20090;-71
2021/01/02 07:19:30;;;;;;;25.30;11.32;;;;;;;2.03;93.17;100869.22;5072758;28;20123;-71
2021/01/02 07:22:13;;;;;;;25.98;12.13;;;;;;;1.92;93.12;100873.50;5072863;28;20055;-71
2021/01/02 07:24:54;;;;;;;26.90;12.57;;;;;;;1.86;93.33;100878.25;5073741;28;20140;-71
2021/01/02 07:27:25;;;;;;;34.17;13.63;;;;;;;1.81;93.25;100876.88;5071972;28;20048;-71
2021/01/02 07:29:55;;;;;;;27.17;14.45;;;;;;;1.80;93.31;100886.59;5073507;28;20032;-71
2021/01/02 07:32:25;;;;;;;31.38;12.88;;;;;;;1.89;93.30;100895.63;5072643;28;20041;-71
2021/01/02 07:34:50;;;;;;;29.65;13.88;;;;;;;1.82;93.38;100899.63;5073576;28;20479;-71
2021/01/02 07:37:18;;;;;;;27.93;13.90;;;;;;;1.82;93.38;100897.00;5072348;28;20068;-71
2021/01/02 07:39:58;;;;;;;32.78;14.60;;;;;;;1.84;93.19;100897.75;5073434;28;20521;-71
2021/01/02 07:42:25;;;;;;;35.28;15.50;;;;;;;1.84;93.63;100903.84;5073225;28;20089;-71
2021/01/02 07:44:56;;;;;;;39.08;15.48;;;;;;;1.87;93.48;100908.94;5072379;28;20101;-71
2021/01/02 07:47:23;;;;;;;36.42;15.50;;;;;;;1.95;93.35;100912.84;5073061;28;20032;-71
2021/01/02 07:49:48;;;;;;;34.15;15.63;;;;;;;1.96;93.41;100912.72;5073166;28;20040;-71
2021/01/02 07:52:14;;;;;;;33.13;14.67;;;;;;;1.83;93.46;100914.50;5072392;28;20044;-71
2021/01/02 07:54:39;;;;;;;30.45;14.25;;;;;;;1.86;93.67;100923.00;5073158;28;20028;-71
2021/01/02 07:57:06;;;;;;;39.67;14.97;;;;;;;1.96;93.50;100923.25;5071688;28;20123;-71
2021/01/02 07:59:34;;;;;;;47.67;17.33;;;;;;;1.83;93.50;100925.03;5072905;28;20036;-71
2021/01/02 08:02:03;;;;;;;39.03;14.43;;;;;;;1.89;93.75;100928.06;5072991;28;20032;-71
2021/01/02 08:04:31;;;;;;;38.28;15.10;;;;;;;1.98;93.46;100928.41;5072809;28;20032;-72
2021/01/02 08:06:58;;;;;;;36.17;15.55;;;;;;;2.01;93.65;100934.31;5055073;28;20416;-72
2021/01/02 08:09:25;;;;;;;36.95;15.18;;;;;;;1.98;93.57;100945.06;5072896;28;20076;-71
2021/01/02 08:11:56;;;;;;;38.38;14.38;;;;;;;2.00;93.42;100947.59;5072737;28;20398;-71
2021/01/02 08:14:23;;;;;;;42.60;16.85;;;;;;;2.02;93.47;100938.63;5072704;28;20029;-72
2021/01/02 08:16:58;;;;;;;36.20;15.10;;;;;;;2.05;93.55;100945.50;5072495;28;20036;-72
2021/01/02 08:19:24;;;;;;;33.95;14.27;;;;;;;2.11;93.69;100947.72;5072570;28;20051;-71
2021/01/02 08:21:49;;;;;;;37.72;15.90;;;;;;;2.14;93.59;100946.66;5071751;28;20040;-71
2021/01/02 08:24:18;;;;;;;34.87;15.80;;;;;;;2.04;93.43;100947.28;5072477;28;20477;-71
2021/01/02 08:26:43;;;;;;;37.95;14.73;;;;;;;2.10;93.40;100957.41;5072167;28;20037;-71
2021/01/02 08:29:09;;;;;;;34.70;15.52;;;;;;;2.15;93.12;100959.72;5072484;28;20048;-72
2021/01/02 08:31:39;;;;;;;36.85;16.63;;;;;;;2.20;93.33;100964.69;5072376;28;20027;-72
2021/01/02 08:34:05;;;;;;;40.78;16.73;;;;;;;2.16;93.27;100960.59;5071333;28;20052;-72
2021/01/02 08:36:30;;;;;;;33.83;15.85;;;;;;;2.17;93.36;100962.25;5072013;28;20104;-72
2021/01/02 08:38:59;;;;;;;38.93;17.13;;;;;;;2.11;93.25;100972.28;5072392;28;20450;-72
2021/01/02 08:41:27;;;;;;;39.85;15.35;;;;;;;2.14;93.30;100973.00;5072082;28;20047;-72
2021/01/02 08:43:55;;;;;;;45.33;16.08;;;;;;;2.20;93.26;100972.59;5071271;28;20090;-72
2021/01/02 08:46:23;;;;;;;37.70;15.57;;;;;;;2.23;93.33;100977.66;5071271;28;20086;-72
2021/01/02 08:48:49;;;;;;;36.40;16.13;;;;;;;2.25;93.45;100986.31;5070579;28;20127;-64
2021/01/02 08:51:22;;;;;;;36.63;16.02;;;;;;;2.27;93.22;100989.66;5070909;28;20572;-64
2021/01/02 08:53:48;;;;;;;42.10;17.10;;;;;;;2.28;93.34;100996.63;5068974;28;20389;-65
2021/01/02 08:56:27;;;;;;;58.33;18.90;;;;;;;2.26;92.93;100998.53;5068887;28;20103;-65
2021/01/02 08:58:53;;;;;;;38.47;15.10;;;;;;;2.28;93.01;101001.91;5070993;28;20135;-65
2021/01/02 09:01:18;;;;;;;;;;;;;;;2.30;93.18;101002.66;5072179;28;20040;-64
2021/01/02 09:03:44;;;;;;;;;;;;;;;2.31;93.04;101001.69;5054391;28;20073;-64
2021/01/02 09:06:20;;;;;;;32.90;14.13;;;;;;;2.25;93.01;101005.59;5053878;28;19916;-64
2021/01/02 09:08:57;;;;;;;40.90;15.75;;;;;;;2.28;93.17;101004.53;5071745;28;20370;-64
2021/01/02 09:11:23;;;;;;;37.33;15.77;;;;;;;2.31;93.26;101014.88;5070769;28;20033;-64
2021/01/02 09:13:48;;;;;;;51.47;19.20;;;;;;;2.36;93.18;101012.75;5071669;28;20059;-64
2021/01/02 09:16:15;;;;;;;43.63;16.57;;;;;;;2.37;93.09;101018.91;5071323;28;20044;-64
2021/01/02 09:18:42;;;;;;;46.47;15.75;;;;;;;2.41;93.16;101023.88;5070607;28;20129;-64
2021/01/02 09:21:10;;;;;;;44.60;18.33;;;;;;;2.45;93.21;101022.69;5071546;28;20033;-64
2021/01/02 09:23:40;;;;;;;55.17;19.75;;;;;;;2.37;92.77;101024.16;5071449;28;20036;-64
2021/01/02 09:26:18;;;;;;;42.40;18.25;;;;;;;2.45;93.05;101029.75;5071321;28;20028;-64
2021/01/02 09:28:44;;;;;;;55.72;27.08;;;;;;;2.33;92.96;101026.16;5071120;28;20100;-65
2021/01/02 09:31:09;;;;;;;47.03;20.23;;;;;;;2.27;92.88;101027.41;5070254;28;20039;-65
2021/01/02 09:33:35;;;;;;;41.27;17.97;;;;;;;2.34;92.87;101033.09;5069704;28;20458;-65
2021/01/02 09:36:00;;;;;;;40.50;17.17;;;;;;;2.39;92.92;101038.94;5070011;28;20510;-65
2021/01/02 09:38:25;;;;;;;45.03;17.60;;;;;;;2.43;93.00;101037.75;5070965;28;20785;-65
2021/01/02 09:40:51;;;;;;;44.73;17.50;;;;;;;2.33;92.92;101041.97;5071023;28;20036;-65
2021/01/02 09:43:17;;;;;;;34.50;15.27;;;;;;;2.35;93.13;101039.25;5070868;28;20083;-65
2021/01/02 09:45:42;;;;;;;38.42;16.70;;;;;;;2.40;93.23;101043.25;5070053;28;20043;-65
2021/01/02 09:48:10;;;;;;;34.70;14.90;;;;;;;2.50;93.06;101046.09;5070862;28;20032;-65
2021/01/02 09:50:36;;;;;;;35.33;17.85;;;;;;;2.39;92.78;101046.84;5071141;28;20025;-65
2021/01/02 09:53:02;;;;;;;40.50;19.08;;;;;;;2.43;92.63;101039.56;5071120;28;20036;-64
2021/01/02 09:55:28;;;;;;;26.27;14.32;;;;;;;2.36;92.63;101041.75;5071018;28;20128;-64
2021/01/02 09:57:53;;;;;;;28.75;14.43;;;;;;;2.44;92.61;101044.72;5068027;28;20190;-65
2021/01/02 10:00:20;;;;;;;28.80;14.63;;;;;;;2.45;92.34;101045.56;5070572;28;20040;-65
2021/01/02 10:02:45;;;;;;;24.13;12.02;;;;;;;2.38;92.39;101050.41;5069712;28;20427;-66
2021/01/02 10:05:18;;;;;;;27.07;12.27;;;;;;;2.25;92.22;101049.56;5077382;28;20032;-65
2021/01/02 10:07:44;;;;;;;28.60;11.07;;;;;;;2.22;92.48;101052.38;5084910;28;20036;-66
2021/01/02 10:10:11;;;;;;;32.60;14.50;;;;;;;2.13;92.54;101050.34;5074177;28;20024;-65
2021/01/02 10:12:36;;;;;;;28.15;12.80;;;;;;;2.28;92.53;101062.50;5057084;28;20045;-65
2021/01/02 10:15:03;;;;;;;23.37;12.23;;;;;;;2.30;92.27;101063.25;5086440;28;20044;-65
2021/01/02 10:17:29;;;;;;;33.90;12.95;;;;;;;2.36;92.50;101054.91;5075572;28;20061;-65
2021/01/02 10:19:55;;;;;;;21.73;11.23;;;;;;;2.48;92.26;101066.44;5077660;28;20037;-65
2021/01/02 10:22:21;;;;;;;31.40;15.68;;;;;;;2.40;92.28;101068.75;5092942;28;20165;-66
2021/01/02 10:24:52;;;;;;;33.63;14.25;;;;;;;2.36;92.13;101065.47;5081670;28;20146;-65
2021/01/02 10:27:18;;;;;;;37.22;19.73;;;;;;;2.29;92.23;101070.31;5064921;28;20036;-65
2021/01/02 10:29:44;;;;;;;27.10;14.57;;;;;;;2.38;91.98;101070.66;5082258;28;20444;-66
2021/01/02 10:32:11;;;;;;;30.13;14.27;;;;;;;2.35;92.26;101071.69;5073277;28;20043;-65
2021/01/02 10:34:36;;;;;;;27.80;13.95;;;;;;;2.32;92.06;101066.63;5081832;28;20381;-65
2021/01/02 10:37:02;;;;;;;28.93;13.20;;;;;;;2.39;92.29;101073.19;5083158;28;20027;-65
2021/01/02 10:39:28;;;;;;;24.95;11.80;;;;;;;2.43;92.06;101065.91;5081127;28;20063;-65
2021/01/02 10:41:53;;;;;;;31.33;13.03;;;;;;;2.35;92.16;101069.06;5082385;28;20072;-65
2021/01/02 10:44:19;;;;;;;24.83;12.67;;;;;;;2.34;92.00;101072.63;5081985;28;20078;-65
2021/01/02 10:46:47;;;;;;;27.83;13.27;;;;;;;2.37;91.95;101072.44;5081597;28;20032;-66
2021/01/02 10:49:15;;;;;;;29.63;13.70;;;;;;;2.44;92.14;101075.53;5082208;28;20481;-66
2021/01/02 10:51:41;;;;;;;24.52;12.27;;;;;;;2.41;92.03;101073.94;5081920;28;20032;-65
2021/01/02 10:54:09;;;;;;;30.23;15.00;;;;;;;2.40;92.08;101074.88;5081719;28;20374;-65
2021/01/02 10:56:34;;;;;;;35.05;13.77;;;;;;;2.58;92.22;101077.25;5081025;28;20044;-66
2021/01/02 10:59:00;;;;;;;27.93;14.20;;;;;;;2.59;91.96;101078.91;5081644;28;20031;-66
2021/01/02 11:01:25;;;;;;;29.17;15.07;;;;;;;2.66;92.17;101070.47;5081696;28;20111;-66
2021/01/02 11:03:50;;;;;;;31.17;13.95;;;;;;;2.67;91.95;101074.81;5082000;28;20020;-66
2021/01/02 11:06:16;;;;;;;33.20;13.60;;;;;;;2.68;91.71;101073.03;5081257;28;20032;-66
2021/01/02 11:08:42;;;;;;;36.33;14.40;;;;;;;2.64;91.94;101071.53;5081206;28;20468;-66
2021/01/02 11:11:07;;;;;;;28.20;14.32;;;;;;;2.76;91.91;101075.97;5081299;28;20153;-66
2021/01/02 11:13:35;;;;;;;34.93;15.53;;;;;;;2.74;91.51;101073.47;5081793;28;20908;-66
2021/01/02 11:16:00;;;;;;;40.10;16.05;;;;;;;2.58;91.71;101067.53;5081125;28;20094;-66
2021/01/02 11:18:26;;;;;;;35.37;15.27;;;;;;;2.71;91.91;101075.44;5081155;28;20060;-66
2021/01/02 11:20:51;;;;;;;31.70;15.15;;;;;;;2.64;91.58;101076.81;5082277;28;20368;-66
2021/01/02 11:23:18;;;;;;;39.75;16.63;;;;;;;2.63;91.50;101077.78;5081901;28;20093;-66
2021/01/02 11:25:45;;;;;;;34.28;14.60;;;;;;;2.60;91.74;101070.03;5081120;28;20068;-66
2021/01/02 11:28:10;;;;;;;;;;;;;;;2.65;91.75;101070.59;5082468;28;20118;-66
2021/01/02 11:30:36;;;;;;;;;;;;;;;2.75;92.03;101076.94;5082386;28;19934;-66
2021/01/02 11:33:01;;;;;;;32.10;11.63;;;;;;;2.86;92.11;101071.78;5082057;28;19922;-66